Terminal Aerodrome Forecast
Issued by NWS Bismarck, ND

Home | Current Version | Previous Version | Text Only | Print | Product List | Glossary On
Versions: 1 2 3 4 5 6 7 8 9 10 11 12 13 14 15 16 17 18 19
000
FTUS43 KBIS 281041 AAA
TAFISN
TAF AMD
KISN 281041Z 2811/2906 03004KT P6SM BKN035
     FM281400 10004KT P6SM SCT035 BKN080
     FM281900 09005KT P6SM SCT035=

USA.gov is the U.S. government's official web portal to all federal, state and local government web resources and services.